Wahpeton, North Dakota
Current Conditions -  °F | °C
As of 10:55 PM on Monday 22 Dec 2014 (Local Time) from KBWP Reporting Station
Overcast Overcast  
Wind Chill: 26°   Ceiling: 2300
Heat Index: 32°   Visibility: 4mi
Dew Point: 32°   Wind: 6mph
Humidity: 100%   Direction: 50°NE
Pressure: 29.67"   Gusts: NA
Location:  46.26°N, 96.6°W
Report Text: KBWP 230455Z AUTO 05005KT 4SM OVC023 00/00 A2967 RMK AO1
Loading
Personal Weather Stations






























Interactive Weather Map New forecast layout! Learn more

10-Day Weather Forecast

Advertisements
Track Severe Weather on mobile